New England — V7HF3 — position and weather

sailwx.info

Track history (hours):
 
Tides and Currents Weather Stations Pressure Air Temp Water Temp Dewpoint Dewpoint Depression Visibility Wind Speed Wind Dir Waves Ship Positions

New England

Last reported at 2016-Feb-06 20:33 UTC. Time now 2016-Feb-06 20:47 UTC.
Position N 42°26' W 070°48'.

Length 183 m; draft 10.1 m.

Type: Ship. MMSI: 538002220.

Date/timePositionNaut miles runAvg speedWind from/ knotsBaromVisibWave heightAir tempDewpointWater temp
2016-Feb-06 20:33N 42°26' W 070°48'0 0.0
2016-Feb-06 19:33N 42°26' W 070°48'0 0.0
2016-Feb-06 18:32N 42°26' W 070°48'0 0.0
2016-Feb-06 17:32N 42°26' W 070°48'0 0.1
2016-Feb-06 16:32N 42°26' W 070°48'0 0.0
2016-Feb-06 15:31N 42°26' W 070°48'0 0.0
2016-Feb-06 14:31N 42°26' W 070°48'0 0.1
2016-Feb-06 13:30N 42°26' W 070°48'0 0.0
2016-Feb-06 12:30N 42°26' W 070°48'0 0.0
2016-Feb-06 11:29N 42°26' W 070°48'0 0.2
2016-Feb-06 10:33N 42°26' W 070°48'  
2016-Jan-30 23:33N 42°28' W 070°42'1313.4
2016-Jan-30 22:34N 42°20' W 070°57'5 4.7
2016-Jan-30 21:33N 42°24' W 071°01'0 0.0
2016-Jan-30 17:14N 42°24' W 071°01'0 0.0
2016-Jan-30 15:25N 42°24' W 071°01'0 0.0
2016-Jan-30 14:30N 42°24' W 071°01'0 0.0
2016-Jan-30 13:30N 42°24' W 071°01'0 0.0
2016-Jan-30 12:17N 42°24' W 071°01'0 0.0
2016-Jan-30 10:11N 42°24' W 071°01'1 0.0
2016-Jan-29 17:33N 42°23' W 071°01'3 2.9
2016-Jan-29 16:33N 42°20' W 071°01'2 1.9
2016-Jan-29 15:33N 42°20' W 070°58'0 0.1
2016-Jan-29 14:32N 42°20' W 070°58'0 0.1
2016-Jan-29 13:32N 42°20' W 070°58'0 0.1
2016-Jan-29 12:31N 42°20' W 070°58'0 0.0
2016-Jan-29 11:28N 42°20' W 070°58'0 0.0
2016-Jan-29 10:33N 42°20' W 070°58'0 0.0
2016-Jan-29 09:33N 42°20' W 070°58'0 0.0
2016-Jan-29 08:33N 42°20' W 070°58'0 0.2
2016-Jan-29 07:33N 42°20' W 070°58'0 0.0
2016-Jan-29 06:33N 42°20' W 070°58'0 0.0
2016-Jan-29 05:33N 42°20' W 070°58'0 0.0
2016-Jan-29 04:33N 42°20' W 070°58'1 1.2
2016-Jan-29 03:33N 42°20' W 070°56'1110.6
2016-Jan-29 02:33N 42°27' W 070°45'  
Track history (hours):
 
Tides and Currents Weather Stations Pressure Air Temp Water Temp Dewpoint Dewpoint Depression Visibility Wind Speed Wind Dir Waves Ship Positions

New England

Last reported at 2016-Feb-06 20:33 UTC. Time now 2016-Feb-06 20:47 UTC.
Position N 42°26' W 070°48'.

Length 183 m; draft 10.1 m.

Type: Ship. MMSI: 538002220.

Date/timePositionNaut miles runAvg speedWind from/ knotsBaromVisibWave heightAir tempDewpointWater temp
2016-Feb-06 20:33N 42°26' W 070°48'0 0.0
2016-Feb-06 19:33N 42°26' W 070°48'0 0.0
2016-Feb-06 18:32N 42°26' W 070°48'0 0.0
2016-Feb-06 17:32N 42°26' W 070°48'0 0.1
2016-Feb-06 16:32N 42°26' W 070°48'0 0.0
2016-Feb-06 15:31N 42°26' W 070°48'0 0.0
2016-Feb-06 14:31N 42°26' W 070°48'0 0.1
2016-Feb-06 13:30N 42°26' W 070°48'0 0.0
2016-Feb-06 12:30N 42°26' W 070°48'0 0.0
2016-Feb-06 11:29N 42°26' W 070°48'0 0.2
2016-Feb-06 10:33N 42°26' W 070°48'  
2016-Jan-30 23:33N 42°28' W 070°42'1313.4
2016-Jan-30 22:34N 42°20' W 070°57'5 4.7
2016-Jan-30 21:33N 42°24' W 071°01'0 0.0
2016-Jan-30 17:14N 42°24' W 071°01'0 0.0
2016-Jan-30 15:25N 42°24' W 071°01'0 0.0
2016-Jan-30 14:30N 42°24' W 071°01'0 0.0
2016-Jan-30 13:30N 42°24' W 071°01'0 0.0
2016-Jan-30 12:17N 42°24' W 071°01'0 0.0
2016-Jan-30 10:11N 42°24' W 071°01'1 0.0
2016-Jan-29 17:33N 42°23' W 071°01'3 2.9
2016-Jan-29 16:33N 42°20' W 071°01'2 1.9
2016-Jan-29 15:33N 42°20' W 070°58'0 0.1
2016-Jan-29 14:32N 42°20' W 070°58'0 0.1
2016-Jan-29 13:32N 42°20' W 070°58'0 0.1
2016-Jan-29 12:31N 42°20' W 070°58'0 0.0
2016-Jan-29 11:28N 42°20' W 070°58'0 0.0
2016-Jan-29 10:33N 42°20' W 070°58'0 0.0
2016-Jan-29 09:33N 42°20' W 070°58'0 0.0
2016-Jan-29 08:33N 42°20' W 070°58'0 0.2
2016-Jan-29 07:33N 42°20' W 070°58'0 0.0
2016-Jan-29 06:33N 42°20' W 070°58'0 0.0
2016-Jan-29 05:33N 42°20' W 070°58'0 0.0
2016-Jan-29 04:33N 42°20' W 070°58'1 1.2
2016-Jan-29 03:33N 42°20' W 070°56'1110.6
2016-Jan-29 02:33N 42°27' W 070°45'  

Dump ship's entire track history